EPKK/KRK METAR and TAF weather

Enter ICAO airport designator
Station Type Date Time Source
EPKK METAR 2022/06/26 09:00 UTC NOAA

EPKK 260900Z 06009KT 020V090 CAVOK 27/12 Q1016


Station Type Date Time Source
EPKK Decoded METAR 2022/06/26 09:00 UTC NOAA

Krakow, Poland (EPKK) 50-05N 019-48E 237M
Jun 26, 2022 - 05:00 AM EDT / 2022.06.26 0900 UTC
Wind: from the ENE (060 degrees) at 10 MPH (9 KT) (direction variable):0
Visibility: greater than 7 mile(s):0
Temperature: 80 F (27 C)
Dew Point: 53 F (12 C)
Relative Humidity: 39%
Pressure (altimeter): 30.00 in. Hg (1016 hPa)
ob: EPKK 260900Z 06009KT 020V090 CAVOK 27/12 Q1016
cycle: 9

Station Type Date Time Source
EPKK TAF 2022/06/26 09:33 UTC NOAA

TAF TAF EPKK 260830Z 2609/2709 07007KT CAVOK

Example: see airport list